Yuho Maru No.3 — JD2491 — position and weather

sailwx.info

Track history (hours):
 
Tides and Currents Weather Stations Pressure Air Temp Water Temp Dewpoint Dewpoint Depression Visibility Wind Speed Wind Dir Waves Ship Positions

Yuho Maru No.3

Last reported at 2015-Aug-04 07:29 UTC. Time now 2015-Aug-05 12:34 UTC.
Position N 34°37' E 135°01'.

Length 65 m; draft 4.2 m.

Type: Tanker. MMSI: 431000336.

Date/timePositionNaut miles runAvg speedWind from/ knotsBaromVisibWave heightAir tempDewpointWater temp
2015-Aug-04 07:29N 34°37' E 135°01'9 9.9
2015-Aug-04 06:33N 34°37' E 135°12'1110.8
2015-Aug-04 05:33N 34°40' E 135°25'0 0.0
2015-Aug-04 04:33N 34°40' E 135°25'0 0.2
2015-Aug-04 03:32N 34°40' E 135°25'0 0.0
2015-Aug-04 02:30N 34°40' E 135°25'1 0.7
2015-Aug-04 01:33N 34°40' E 135°25'0 0.0
2015-Aug-04 00:33N 34°40' E 135°25'  
2015-Jul-30 06:21N 35°05' E 139°36'810.3
2015-Jul-30 05:33N 35°09' E 139°44'9 9.0
2015-Jul-30 04:33N 35°18' E 139°44'9 9.1
2015-Jul-30 03:33N 35°27' E 139°46'4 4.4
2015-Jul-30 02:33N 35°32' E 139°46'0 0.0
2015-Jul-30 01:33N 35°32' E 139°46'0 0.0
2015-Jul-30 00:33N 35°32' E 139°46'0 0.0
2015-Jul-29 23:33N 35°32' E 139°46'0 0.0
2015-Jul-29 22:33N 35°32' E 139°46'1 1.2
2015-Jul-29 21:33N 35°30' E 139°46'0 0.1
2015-Jul-29 20:33N 35°30' E 139°46'0 0.0
2015-Jul-29 19:33N 35°30' E 139°46'0 0.0
2015-Jul-29 18:33N 35°30' E 139°46'0 0.0
2015-Jul-29 17:33N 35°30' E 139°46'0 0.0
2015-Jul-29 16:33N 35°30' E 139°46'0 0.0
2015-Jul-29 15:33N 35°30' E 139°46'0 0.0
2015-Jul-29 14:33N 35°30' E 139°46'0 0.0
2015-Jul-29 13:33N 35°30' E 139°46'0 0.0
2015-Jul-29 12:33N 35°30' E 139°46'0 0.0
2015-Jul-29 11:33N 35°30' E 139°46'0 0.0
2015-Jul-29 10:33N 35°30' E 139°46'0 0.0
2015-Jul-29 09:33N 35°30' E 139°46'0 0.0
2015-Jul-29 08:33N 35°30' E 139°46'3 2.7
2015-Jul-29 07:33N 35°28' E 139°47'5 5.5
2015-Jul-29 06:33N 35°29' E 139°40'0 0.0
2015-Jul-29 05:33N 35°29' E 139°40'0 0.4
2015-Jul-29 04:33N 35°29' E 139°40'1110.5
2015-Jul-29 03:33N 35°30' E 139°53'9 8.7
2015-Jul-29 02:33N 35°32' E 140°03'0 0.0
2015-Jul-29 01:33N 35°32' E 140°03'0 0.0
2015-Jul-29 00:33N 35°32' E 140°03'4 4.0
2015-Jul-28 23:33N 35°36' E 140°06'1 0.9
2015-Jul-28 22:33N 35°36' E 140°06'0 0.0
2015-Jul-28 21:33N 35°36' E 140°06'0 0.0
2015-Jul-28 20:32N 35°36' E 140°06'0 0.0
2015-Jul-28 19:33N 35°36' E 140°06'0 0.0
2015-Jul-28 18:33N 35°36' E 140°06'0 0.0
2015-Jul-28 17:33N 35°36' E 140°06'0 0.0
2015-Jul-28 16:33N 35°36' E 140°06'0 0.0
2015-Jul-28 15:33N 35°36' E 140°06'0 0.0
2015-Jul-28 14:33N 35°36' E 140°06'0 0.0
2015-Jul-28 13:33N 35°36' E 140°06'0 0.0
2015-Jul-28 12:33N 35°36' E 140°06'0 0.0
2015-Jul-28 11:32N 35°36' E 140°06'0 0.0
2015-Jul-28 10:33N 35°36' E 140°06'0 0.0
2015-Jul-28 09:33N 35°36' E 140°06'4 3.7
2015-Jul-28 08:33N 35°35' E 140°02'1010.0
2015-Jul-28 07:33N 35°37' E 139°50'7 6.7
2015-Jul-28 06:33N 35°35' E 139°58'8 7.7
2015-Jul-28 05:33N 35°33' E 140°07'0 0.0
2015-Jul-28 04:34N 35°33' E 140°07'2 1.8
2015-Jul-28 03:33N 35°33' E 140°05'0 0.0
2015-Jul-28 02:33N 35°33' E 140°05'4 4.2
2015-Jul-28 01:33N 35°30' E 140°02'0 0.0
2015-Jul-28 00:34N 35°30' E 140°02'0 0.0
2015-Jul-27 23:34N 35°30' E 140°02'2 2.4
2015-Jul-27 22:31N 35°30' E 139°59'3 2.9
2015-Jul-27 21:33N 35°29' E 139°56'0 0.0
2015-Jul-27 20:34N 35°29' E 139°56'0 0.0
2015-Jul-27 19:34N 35°29' E 139°56'0 0.0
2015-Jul-27 18:33N 35°29' E 139°56'0 0.0
2015-Jul-27 17:33N 35°29' E 139°56'0 0.0
2015-Jul-27 16:34N 35°29' E 139°56'0 0.0
2015-Jul-27 15:34N 35°29' E 139°56'0 0.0
2015-Jul-27 14:34N 35°29' E 139°56'0 0.0
2015-Jul-27 13:33N 35°29' E 139°56'0 0.0
2015-Jul-27 12:34N 35°29' E 139°56'4 4.0
2015-Jul-27 11:33N 35°30' E 140°01'1 1.3
2015-Jul-27 10:33N 35°30' E 140°02'0 0.0
2015-Jul-27 09:33N 35°30' E 140°02'0 0.0
2015-Jul-27 08:33N 35°30' E 140°02'0 0.0
2015-Jul-27 07:33N 35°30' E 140°02'0 0.0
2015-Jul-27 06:33N 35°30' E 140°02'0 0.0
2015-Jul-27 05:33N 35°30' E 140°02'0 0.0
2015-Jul-27 04:33N 35°30' E 140°02'0 0.0
2015-Jul-27 03:33N 35°30' E 140°02'0 0.0
2015-Jul-27 02:33N 35°30' E 140°02'0 0.0
2015-Jul-27 01:33N 35°30' E 140°02'0 0.0
2015-Jul-27 00:33N 35°30' E 140°02'0 0.0
2015-Jul-26 23:33N 35°30' E 140°02'0 0.0
2015-Jul-26 22:33N 35°30' E 140°02'2 1.8
2015-Jul-26 21:33N 35°31' E 140°00'7 6.7
2015-Jul-26 20:32N 35°36' E 140°06'0 0.0
2015-Jul-26 19:33N 35°36' E 140°06'0 0.0
2015-Jul-26 18:33N 35°36' E 140°06'0 0.0
2015-Jul-26 17:33N 35°36' E 140°06'0 0.0
2015-Jul-26 16:33N 35°36' E 140°06'0 0.0
2015-Jul-26 15:33N 35°36' E 140°06'0 0.0
2015-Jul-26 14:33N 35°36' E 140°06'0 0.0
2015-Jul-26 13:33N 35°36' E 140°06'0 0.0
2015-Jul-26 12:33N 35°36' E 140°06'0 0.0
2015-Jul-26 11:33N 35°36' E 140°06'0 0.0
2015-Jul-26 10:32N 35°36' E 140°06'0 0.0
2015-Jul-26 09:33N 35°36' E 140°06'0 0.0
2015-Jul-26 08:33N 35°36' E 140°06'0 0.0
2015-Jul-26 07:32N 35°36' E 140°06'0 0.0
2015-Jul-26 06:33N 35°36' E 140°06'0 0.0
2015-Jul-26 05:34N 35°36' E 140°06'0 0.0
2015-Jul-26 04:33N 35°36' E 140°06'0 0.0
2015-Jul-26 03:33N 35°36' E 140°06'0 0.0
2015-Jul-26 02:33N 35°36' E 140°06'0 0.0
2015-Jul-26 01:33N 35°36' E 140°06'0 0.0
2015-Jul-26 00:33N 35°36' E 140°06'0 0.0
2015-Jul-25 23:33N 35°36' E 140°06'5 5.1
2015-Jul-25 22:34N 35°32' E 140°02'0 0.1
2015-Jul-25 21:33N 35°32' E 140°02'0 0.0
2015-Jul-25 20:33N 35°32' E 140°02'0 0.0
2015-Jul-25 19:33N 35°32' E 140°02'0 0.0
2015-Jul-25 18:33N 35°32' E 140°02'0 0.0
2015-Jul-25 17:33N 35°32' E 140°02'0 0.0
2015-Jul-25 16:33N 35°32' E 140°02'0 0.0
2015-Jul-25 15:33N 35°32' E 140°02'0 0.0
2015-Jul-25 14:33N 35°32' E 140°02'0 0.0
2015-Jul-25 13:33N 35°32' E 140°02'0 0.1
2015-Jul-25 12:34N 35°32' E 140°02'0 0.0
2015-Jul-25 11:33N 35°32' E 140°02'0 0.0
2015-Jul-25 10:33N 35°32' E 140°02'0 0.0
2015-Jul-25 09:34N 35°32' E 140°02'2 2.3
2015-Jul-25 08:34N 35°30' E 140°02'4 3.9
2015-Jul-25 07:34N 35°34' E 140°02'  
Track history (hours):
 
Tides and Currents Weather Stations Pressure Air Temp Water Temp Dewpoint Dewpoint Depression Visibility Wind Speed Wind Dir Waves Ship Positions

Yuho Maru No.3

Last reported at 2015-Aug-04 07:29 UTC. Time now 2015-Aug-05 12:34 UTC.
Position N 34°37' E 135°01'.

Length 65 m; draft 4.2 m.

Type: Tanker. MMSI: 431000336.

Date/timePositionNaut miles runAvg speedWind from/ knotsBaromVisibWave heightAir tempDewpointWater temp
2015-Aug-04 07:29N 34°37' E 135°01'9 9.9
2015-Aug-04 06:33N 34°37' E 135°12'1110.8
2015-Aug-04 05:33N 34°40' E 135°25'0 0.0
2015-Aug-04 04:33N 34°40' E 135°25'0 0.2
2015-Aug-04 03:32N 34°40' E 135°25'0 0.0
2015-Aug-04 02:30N 34°40' E 135°25'1 0.7
2015-Aug-04 01:33N 34°40' E 135°25'0 0.0
2015-Aug-04 00:33N 34°40' E 135°25'  
2015-Jul-30 06:21N 35°05' E 139°36'810.3
2015-Jul-30 05:33N 35°09' E 139°44'9 9.0
2015-Jul-30 04:33N 35°18' E 139°44'9 9.1
2015-Jul-30 03:33N 35°27' E 139°46'4 4.4
2015-Jul-30 02:33N 35°32' E 139°46'0 0.0
2015-Jul-30 01:33N 35°32' E 139°46'0 0.0
2015-Jul-30 00:33N 35°32' E 139°46'0 0.0
2015-Jul-29 23:33N 35°32' E 139°46'0 0.0
2015-Jul-29 22:33N 35°32' E 139°46'1 1.2
2015-Jul-29 21:33N 35°30' E 139°46'0 0.1
2015-Jul-29 20:33N 35°30' E 139°46'0 0.0
2015-Jul-29 19:33N 35°30' E 139°46'0 0.0
2015-Jul-29 18:33N 35°30' E 139°46'0 0.0
2015-Jul-29 17:33N 35°30' E 139°46'0 0.0
2015-Jul-29 16:33N 35°30' E 139°46'0 0.0
2015-Jul-29 15:33N 35°30' E 139°46'0 0.0
2015-Jul-29 14:33N 35°30' E 139°46'0 0.0
2015-Jul-29 13:33N 35°30' E 139°46'0 0.0
2015-Jul-29 12:33N 35°30' E 139°46'0 0.0
2015-Jul-29 11:33N 35°30' E 139°46'0 0.0
2015-Jul-29 10:33N 35°30' E 139°46'0 0.0
2015-Jul-29 09:33N 35°30' E 139°46'0 0.0
2015-Jul-29 08:33N 35°30' E 139°46'3 2.7
2015-Jul-29 07:33N 35°28' E 139°47'5 5.5
2015-Jul-29 06:33N 35°29' E 139°40'0 0.0
2015-Jul-29 05:33N 35°29' E 139°40'0 0.4
2015-Jul-29 04:33N 35°29' E 139°40'1110.5
2015-Jul-29 03:33N 35°30' E 139°53'9 8.7
2015-Jul-29 02:33N 35°32' E 140°03'0 0.0
2015-Jul-29 01:33N 35°32' E 140°03'0 0.0
2015-Jul-29 00:33N 35°32' E 140°03'4 4.0
2015-Jul-28 23:33N 35°36' E 140°06'1 0.9
2015-Jul-28 22:33N 35°36' E 140°06'0 0.0
2015-Jul-28 21:33N 35°36' E 140°06'0 0.0
2015-Jul-28 20:32N 35°36' E 140°06'0 0.0
2015-Jul-28 19:33N 35°36' E 140°06'0 0.0
2015-Jul-28 18:33N 35°36' E 140°06'0 0.0
2015-Jul-28 17:33N 35°36' E 140°06'0 0.0
2015-Jul-28 16:33N 35°36' E 140°06'0 0.0
2015-Jul-28 15:33N 35°36' E 140°06'0 0.0
2015-Jul-28 14:33N 35°36' E 140°06'0 0.0
2015-Jul-28 13:33N 35°36' E 140°06'0 0.0
2015-Jul-28 12:33N 35°36' E 140°06'0 0.0
2015-Jul-28 11:32N 35°36' E 140°06'0 0.0
2015-Jul-28 10:33N 35°36' E 140°06'0 0.0
2015-Jul-28 09:33N 35°36' E 140°06'4 3.7
2015-Jul-28 08:33N 35°35' E 140°02'1010.0
2015-Jul-28 07:33N 35°37' E 139°50'7 6.7
2015-Jul-28 06:33N 35°35' E 139°58'8 7.7
2015-Jul-28 05:33N 35°33' E 140°07'0 0.0
2015-Jul-28 04:34N 35°33' E 140°07'2 1.8
2015-Jul-28 03:33N 35°33' E 140°05'0 0.0
2015-Jul-28 02:33N 35°33' E 140°05'4 4.2
2015-Jul-28 01:33N 35°30' E 140°02'0 0.0
2015-Jul-28 00:34N 35°30' E 140°02'0 0.0
2015-Jul-27 23:34N 35°30' E 140°02'2 2.4
2015-Jul-27 22:31N 35°30' E 139°59'3 2.9
2015-Jul-27 21:33N 35°29' E 139°56'0 0.0
2015-Jul-27 20:34N 35°29' E 139°56'0 0.0
2015-Jul-27 19:34N 35°29' E 139°56'0 0.0
2015-Jul-27 18:33N 35°29' E 139°56'0 0.0
2015-Jul-27 17:33N 35°29' E 139°56'0 0.0
2015-Jul-27 16:34N 35°29' E 139°56'0 0.0
2015-Jul-27 15:34N 35°29' E 139°56'0 0.0
2015-Jul-27 14:34N 35°29' E 139°56'0 0.0
2015-Jul-27 13:33N 35°29' E 139°56'0 0.0
2015-Jul-27 12:34N 35°29' E 139°56'4 4.0
2015-Jul-27 11:33N 35°30' E 140°01'1 1.3
2015-Jul-27 10:33N 35°30' E 140°02'0 0.0
2015-Jul-27 09:33N 35°30' E 140°02'0 0.0
2015-Jul-27 08:33N 35°30' E 140°02'0 0.0
2015-Jul-27 07:33N 35°30' E 140°02'0 0.0
2015-Jul-27 06:33N 35°30' E 140°02'0 0.0
2015-Jul-27 05:33N 35°30' E 140°02'0 0.0
2015-Jul-27 04:33N 35°30' E 140°02'0 0.0
2015-Jul-27 03:33N 35°30' E 140°02'0 0.0
2015-Jul-27 02:33N 35°30' E 140°02'0 0.0
2015-Jul-27 01:33N 35°30' E 140°02'0 0.0
2015-Jul-27 00:33N 35°30' E 140°02'0 0.0
2015-Jul-26 23:33N 35°30' E 140°02'0 0.0
2015-Jul-26 22:33N 35°30' E 140°02'2 1.8
2015-Jul-26 21:33N 35°31' E 140°00'7 6.7
2015-Jul-26 20:32N 35°36' E 140°06'0 0.0
2015-Jul-26 19:33N 35°36' E 140°06'0 0.0
2015-Jul-26 18:33N 35°36' E 140°06'0 0.0
2015-Jul-26 17:33N 35°36' E 140°06'0 0.0
2015-Jul-26 16:33N 35°36' E 140°06'0 0.0
2015-Jul-26 15:33N 35°36' E 140°06'0 0.0
2015-Jul-26 14:33N 35°36' E 140°06'0 0.0
2015-Jul-26 13:33N 35°36' E 140°06'0 0.0
2015-Jul-26 12:33N 35°36' E 140°06'0 0.0
2015-Jul-26 11:33N 35°36' E 140°06'0 0.0
2015-Jul-26 10:32N 35°36' E 140°06'0 0.0
2015-Jul-26 09:33N 35°36' E 140°06'0 0.0
2015-Jul-26 08:33N 35°36' E 140°06'0 0.0
2015-Jul-26 07:32N 35°36' E 140°06'0 0.0
2015-Jul-26 06:33N 35°36' E 140°06'0 0.0
2015-Jul-26 05:34N 35°36' E 140°06'0 0.0
2015-Jul-26 04:33N 35°36' E 140°06'0 0.0
2015-Jul-26 03:33N 35°36' E 140°06'0 0.0
2015-Jul-26 02:33N 35°36' E 140°06'0 0.0
2015-Jul-26 01:33N 35°36' E 140°06'0 0.0
2015-Jul-26 00:33N 35°36' E 140°06'0 0.0
2015-Jul-25 23:33N 35°36' E 140°06'5 5.1
2015-Jul-25 22:34N 35°32' E 140°02'0 0.1
2015-Jul-25 21:33N 35°32' E 140°02'0 0.0
2015-Jul-25 20:33N 35°32' E 140°02'0 0.0
2015-Jul-25 19:33N 35°32' E 140°02'0 0.0
2015-Jul-25 18:33N 35°32' E 140°02'0 0.0
2015-Jul-25 17:33N 35°32' E 140°02'0 0.0
2015-Jul-25 16:33N 35°32' E 140°02'0 0.0
2015-Jul-25 15:33N 35°32' E 140°02'0 0.0
2015-Jul-25 14:33N 35°32' E 140°02'0 0.0
2015-Jul-25 13:33N 35°32' E 140°02'0 0.1
2015-Jul-25 12:34N 35°32' E 140°02'0 0.0
2015-Jul-25 11:33N 35°32' E 140°02'0 0.0
2015-Jul-25 10:33N 35°32' E 140°02'0 0.0
2015-Jul-25 09:34N 35°32' E 140°02'2 2.3
2015-Jul-25 08:34N 35°30' E 140°02'4 3.9
2015-Jul-25 07:34N 35°34' E 140°02'  

Dump ship's entire track history